sensor_id;sensor_type;location;lat;lon;timestamp;P1;durP1;ratioP1;P2;durP2;ratioP2
23410;SDS011;11878;51.774;7.220;2022-08-07T00:00:45;2.63;;;1.63;;
23410;SDS011;11878;51.774;7.220;2022-08-07T00:03:47;4.73;;;1.90;;
23410;SDS011;11878;51.774;7.220;2022-08-07T00:06:49;5.50;;;1.90;;
23410;SDS011;11878;51.774;7.220;2022-08-07T00:09:52;3.90;;;2.07;;
23410;SDS011;11878;51.774;7.220;2022-08-07T00:13:14;4.93;;;2.60;;
23410;SDS011;11878;51.774;7.220;2022-08-07T00:16:26;4.03;;;2.27;;
23410;SDS011;11878;51.774;7.220;2022-08-07T00:19:29;4.67;;;2.33;;
23410;SDS011;11878;51.774;7.220;2022-08-07T00:22:51;5.70;;;2.77;;
23410;SDS011;11878;51.774;7.220;2022-08-07T00:25:53;4.07;;;2.60;;
23410;SDS011;11878;51.774;7.220;2022-08-07T00:29:00;5.83;;;2.43;;
23410;SDS011;11878;51.774;7.220;2022-08-07T00:32:03;3.57;;;2.07;;
23410;SDS011;11878;51.774;7.220;2022-08-07T00:35:07;4.60;;;2.40;;
23410;SDS011;11878;51.774;7.220;2022-08-07T00:38:09;5.10;;;2.10;;
23410;SDS011;11878;51.774;7.220;2022-08-07T00:41:13;6.47;;;2.90;;
23410;SDS011;11878;51.774;7.220;2022-08-07T00:44:15;4.77;;;2.27;;
23410;SDS011;11878;51.774;7.220;2022-08-07T00:47:18;8.27;;;2.47;;
23410;SDS011;11878;51.774;7.220;2022-08-07T00:50:40;5.07;;;2.30;;
23410;SDS011;11878;51.774;7.220;2022-08-07T00:53:51;4.83;;;2.57;;
23410;SDS011;11878;51.774;7.220;2022-08-07T00:56:56;3.70;;;2.23;;
23410;SDS011;11878;51.774;7.220;2022-08-07T00:59:58;5.20;;;2.97;;
23410;SDS011;11878;51.774;7.220;2022-08-07T01:03:00;4.80;;;2.20;;
23410;SDS011;11878;51.774;7.220;2022-08-07T01:06:02;3.33;;;2.00;;
23410;SDS011;11878;51.774;7.220;2022-08-07T01:09:04;3.67;;;1.90;;
23410;SDS011;11878;51.774;7.220;2022-08-07T01:12:08;4.37;;;2.20;;
23410;SDS011;11878;51.774;7.220;2022-08-07T01:15:30;7.27;;;2.37;;
23410;SDS011;11878;51.774;7.220;2022-08-07T01:18:54;3.93;;;2.30;;
23410;SDS011;11878;51.774;7.220;2022-08-07T01:21:58;2.83;;;1.93;;
23410;SDS011;11878;51.774;7.220;2022-08-07T01:25:10;3.20;;;1.20;;
23410;SDS011;11878;51.774;7.220;2022-08-07T01:28:32;3.60;;;1.40;;
23410;SDS011;11878;51.774;7.220;2022-08-07T01:31:35;3.17;;;1.53;;
23410;SDS011;11878;51.774;7.220;2022-08-07T01:34:45;2.93;;;1.40;;
23410;SDS011;11878;51.774;7.220;2022-08-07T01:37:49;5.07;;;1.90;;
23410;SDS011;11878;51.774;7.220;2022-08-07T01:40:53;3.80;;;1.53;;
23410;SDS011;11878;51.774;7.220;2022-08-07T01:43:58;4.93;;;1.90;;
23410;SDS011;11878;51.774;7.220;2022-08-07T01:47:03;3.53;;;1.63;;
23410;SDS011;11878;51.774;7.220;2022-08-07T01:50:25;8.13;;;1.70;;
23410;SDS011;11878;51.774;7.220;2022-08-07T01:53:32;5.47;;;1.83;;
23410;SDS011;11878;51.774;7.220;2022-08-07T01:56:57;3.43;;;2.00;;
23410;SDS011;11878;51.774;7.220;2022-08-07T02:00:07;3.07;;;2.17;;
23410;SDS011;11878;51.774;7.220;2022-08-07T02:03:16;3.57;;;2.23;;
23410;SDS011;11878;51.774;7.220;2022-08-07T02:06:33;4.50;;;1.97;;
23410;SDS011;11878;51.774;7.220;2022-08-07T02:09:40;3.33;;;2.20;;
23410;SDS011;11878;51.774;7.220;2022-08-07T02:12:55;3.43;;;1.80;;
23410;SDS011;11878;51.774;7.220;2022-08-07T02:16:07;4.97;;;1.93;;
23410;SDS011;11878;51.774;7.220;2022-08-07T02:19:14;2.67;;;1.57;;
23410;SDS011;11878;51.774;7.220;2022-08-07T02:22:38;3.33;;;1.83;;
23410;SDS011;11878;51.774;7.220;2022-08-07T02:25:44;2.20;;;1.50;;
23410;SDS011;11878;51.774;7.220;2022-08-07T02:29:07;2.97;;;1.70;;
23410;SDS011;11878;51.774;7.220;2022-08-07T02:32:15;3.23;;;1.70;;
23410;SDS011;11878;51.774;7.220;2022-08-07T02:35:24;2.67;;;1.60;;
23410;SDS011;11878;51.774;7.220;2022-08-07T02:38:48;3.50;;;1.30;;
23410;SDS011;11878;51.774;7.220;2022-08-07T02:41:59;6.10;;;1.60;;
23410;SDS011;11878;51.774;7.220;2022-08-07T02:45:11;3.77;;;1.27;;
23410;SDS011;11878;51.774;7.220;2022-08-07T02:48:34;2.00;;;1.67;;
23410;SDS011;11878;51.774;7.220;2022-08-07T02:51:39;3.43;;;2.00;;
23410;SDS011;11878;51.774;7.220;2022-08-07T02:54:54;3.53;;;1.60;;
23410;SDS011;11878;51.774;7.220;2022-08-07T02:58:01;2.70;;;1.50;;
23410;SDS011;11878;51.774;7.220;2022-08-07T03:01:10;4.77;;;1.80;;
23410;SDS011;11878;51.774;7.220;2022-08-07T03:04:19;2.80;;;1.33;;
23410;SDS011;11878;51.774;7.220;2022-08-07T03:07:24;2.13;;;1.57;;
23410;SDS011;11878;51.774;7.220;2022-08-07T03:10:48;2.83;;;1.70;;
23410;SDS011;11878;51.774;7.220;2022-08-07T03:13:55;2.77;;;1.70;;
23410;SDS011;11878;51.774;7.220;2022-08-07T03:17:02;2.23;;;1.23;;
23410;SDS011;11878;51.774;7.220;2022-08-07T03:20:10;6.43;;;1.40;;
23410;SDS011;11878;51.774;7.220;2022-08-07T03:23:14;3.37;;;1.37;;
23410;SDS011;11878;51.774;7.220;2022-08-07T03:26:21;3.27;;;1.63;;
23410;SDS011;11878;51.774;7.220;2022-08-07T03:29:31;2.70;;;1.40;;
23410;SDS011;11878;51.774;7.220;2022-08-07T03:32:40;3.13;;;1.60;;
23410;SDS011;11878;51.774;7.220;2022-08-07T03:35:59;2.83;;;1.30;;
23410;SDS011;11878;51.774;7.220;2022-08-07T03:39:03;3.83;;;1.30;;
23410;SDS011;11878;51.774;7.220;2022-08-07T03:42:14;3.30;;;1.80;;
23410;SDS011;11878;51.774;7.220;2022-08-07T03:45:21;2.53;;;1.40;;
23410;SDS011;11878;51.774;7.220;2022-08-07T03:48:37;4.17;;;1.70;;
23410;SDS011;11878;51.774;7.220;2022-08-07T03:52:02;4.10;;;1.53;;
23410;SDS011;11878;51.774;7.220;2022-08-07T03:55:05;3.67;;;1.77;;
23410;SDS011;11878;51.774;7.220;2022-08-07T03:58:11;3.87;;;1.73;;
23410;SDS011;11878;51.774;7.220;2022-08-07T04:01:33;3.47;;;1.60;;
23410;SDS011;11878;51.774;7.220;2022-08-07T04:04:43;4.17;;;1.50;;
23410;SDS011;11878;51.774;7.220;2022-08-07T04:07:46;2.33;;;1.10;;
23410;SDS011;11878;51.774;7.220;2022-08-07T04:10:53;2.63;;;1.30;;
23410;SDS011;11878;51.774;7.220;2022-08-07T04:14:17;3.33;;;1.57;;
23410;SDS011;11878;51.774;7.220;2022-08-07T04:17:41;1.90;;;1.50;;
23410;SDS011;11878;51.774;7.220;2022-08-07T04:21:04;2.80;;;1.70;;
23410;SDS011;11878;51.774;7.220;2022-08-07T04:24:08;1.67;;;1.23;;
23410;SDS011;11878;51.774;7.220;2022-08-07T04:27:34;3.63;;;1.93;;
23410;SDS011;11878;51.774;7.220;2022-08-07T04:30:47;2.67;;;1.70;;
23410;SDS011;11878;51.774;7.220;2022-08-07T04:34:05;2.07;;;1.30;;
23410;SDS011;11878;51.774;7.220;2022-08-07T04:37:17;2.70;;;1.37;;
23410;SDS011;11878;51.774;7.220;2022-08-07T04:40:22;2.97;;;1.67;;
23410;SDS011;11878;51.774;7.220;2022-08-07T04:43:35;2.70;;;1.60;;
23410;SDS011;11878;51.774;7.220;2022-08-07T04:57:15;2.40;;;1.40;;
23410;SDS011;11878;51.774;7.220;2022-08-07T05:00:54;4.13;;;1.50;;
23410;SDS011;11878;51.774;7.220;2022-08-07T05:04:11;5.70;;;2.80;;
23410;SDS011;11878;51.774;7.220;2022-08-07T05:07:39;5.90;;;2.20;;
23410;SDS011;11878;51.774;7.220;2022-08-07T05:10:57;4.67;;;2.33;;
23410;SDS011;11878;51.774;7.220;2022-08-07T05:14:10;4.00;;;2.30;;
23410;SDS011;11878;51.774;7.220;2022-08-07T05:17:47;4.63;;;2.17;;
23410;SDS011;11878;51.774;7.220;2022-08-07T05:20:56;3.50;;;2.33;;
23410;SDS011;11878;51.774;7.220;2022-08-07T05:24:06;7.60;;;2.43;;
23410;SDS011;11878;51.774;7.220;2022-08-07T05:27:12;4.40;;;2.27;;
23410;SDS011;11878;51.774;7.220;2022-08-07T05:30:36;6.97;;;2.73;;
23410;SDS011;11878;51.774;7.220;2022-08-07T05:33:40;4.93;;;2.67;;
23410;SDS011;11878;51.774;7.220;2022-08-07T05:37:04;9.30;;;2.63;;
23410;SDS011;11878;51.774;7.220;2022-08-07T05:40:25;7.33;;;3.00;;
23410;SDS011;11878;51.774;7.220;2022-08-07T05:43:29;4.27;;;2.93;;
23410;SDS011;11878;51.774;7.220;2022-08-07T05:46:51;4.53;;;2.60;;
23410;SDS011;11878;51.774;7.220;2022-08-07T05:49:57;3.97;;;2.60;;
23410;SDS011;11878;51.774;7.220;2022-08-07T05:53:01;4.37;;;2.70;;
23410;SDS011;11878;51.774;7.220;2022-08-07T05:56:05;5.73;;;3.63;;
23410;SDS011;11878;51.774;7.220;2022-08-07T05:59:17;3.97;;;2.73;;
23410;SDS011;11878;51.774;7.220;2022-08-07T06:02:26;6.77;;;3.33;;
23410;SDS011;11878;51.774;7.220;2022-08-07T06:05:35;4.90;;;3.50;;
23410;SDS011;11878;51.774;7.220;2022-08-07T06:08:42;5.67;;;3.10;;
23410;SDS011;11878;51.774;7.220;2022-08-07T06:11:47;4.10;;;2.43;;
23410;SDS011;11878;51.774;7.220;2022-08-07T06:14:52;4.60;;;2.70;;
23410;SDS011;11878;51.774;7.220;2022-08-07T06:17:59;5.23;;;2.83;;
23410;SDS011;11878;51.774;7.220;2022-08-07T06:21:03;5.90;;;3.40;;
23410;SDS011;11878;51.774;7.220;2022-08-07T06:24:26;3.83;;;2.93;;
23410;SDS011;11878;51.774;7.220;2022-08-07T06:27:48;4.73;;;2.97;;
23410;SDS011;11878;51.774;7.220;2022-08-07T06:31:03;3.87;;;2.70;;
23410;SDS011;11878;51.774;7.220;2022-08-07T06:34:06;6.40;;;2.93;;
23410;SDS011;11878;51.774;7.220;2022-08-07T06:37:09;4.10;;;2.90;;
23410;SDS011;11878;51.774;7.220;2022-08-07T06:40:18;4.67;;;3.17;;
23410;SDS011;11878;51.774;7.220;2022-08-07T06:43:24;6.53;;;2.77;;
23410;SDS011;11878;51.774;7.220;2022-08-07T06:46:44;3.87;;;2.43;;
23410;SDS011;11878;51.774;7.220;2022-08-07T06:50:00;7.13;;;3.10;;
23410;SDS011;11878;51.774;7.220;2022-08-07T06:53:08;3.57;;;2.70;;
23410;SDS011;11878;51.774;7.220;2022-08-07T06:56:32;3.43;;;2.07;;
23410;SDS011;11878;51.774;7.220;2022-08-07T06:59:58;10.37;;;2.97;;
23410;SDS011;11878;51.774;7.220;2022-08-07T07:03:19;4.00;;;2.70;;
23410;SDS011;11878;51.774;7.220;2022-08-07T07:06:41;4.90;;;2.50;;
23410;SDS011;11878;51.774;7.220;2022-08-07T07:10:01;6.50;;;3.00;;
23410;SDS011;11878;51.774;7.220;2022-08-07T07:13:08;7.17;;;2.73;;
23410;SDS011;11878;51.774;7.220;2022-08-07T07:16:15;4.33;;;2.37;;
23410;SDS011;11878;51.774;7.220;2022-08-07T07:19:22;3.40;;;2.23;;
23410;SDS011;11878;51.774;7.220;2022-08-07T07:22:49;5.80;;;2.07;;
23410;SDS011;11878;51.774;7.220;2022-08-07T07:26:13;6.33;;;1.80;;
23410;SDS011;11878;51.774;7.220;2022-08-07T07:29:37;4.17;;;1.80;;
23410;SDS011;11878;51.774;7.220;2022-08-07T07:33:03;3.13;;;1.60;;
23410;SDS011;11878;51.774;7.220;2022-08-07T07:36:08;5.43;;;1.87;;
23410;SDS011;11878;51.774;7.220;2022-08-07T07:39:17;3.13;;;1.60;;
23410;SDS011;11878;51.774;7.220;2022-08-07T07:42:22;3.07;;;1.73;;
23410;SDS011;11878;51.774;7.220;2022-08-07T07:45:33;3.77;;;1.70;;
23410;SDS011;11878;51.774;7.220;2022-08-07T07:48:56;5.97;;;1.63;;
23410;SDS011;11878;51.774;7.220;2022-08-07T07:52:09;2.77;;;1.23;;
23410;SDS011;11878;51.774;7.220;2022-08-07T07:55:13;4.83;;;1.53;;
23410;SDS011;11878;51.774;7.220;2022-08-07T07:58:20;3.10;;;1.93;;
23410;SDS011;11878;51.774;7.220;2022-08-07T08:01:22;3.13;;;1.60;;
23410;SDS011;11878;51.774;7.220;2022-08-07T08:04:45;3.93;;;1.60;;
23410;SDS011;11878;51.774;7.220;2022-08-07T08:07:50;3.23;;;1.40;;
23410;SDS011;11878;51.774;7.220;2022-08-07T08:11:05;1.20;;;0.90;;
23410;SDS011;11878;51.774;7.220;2022-08-07T08:14:32;1.60;;;1.07;;
23410;SDS011;11878;51.774;7.220;2022-08-07T08:17:37;2.53;;;1.07;;
23410;SDS011;11878;51.774;7.220;2022-08-07T08:20:59;3.50;;;1.00;;
23410;SDS011;11878;51.774;7.220;2022-08-07T08:24:03;1.20;;;0.90;;
23410;SDS011;11878;51.774;7.220;2022-08-07T08:27:46;2.90;;;1.00;;
23410;SDS011;11878;51.774;7.220;2022-08-07T08:31:00;2.67;;;0.70;;
23410;SDS011;11878;51.774;7.220;2022-08-07T08:34:05;3.20;;;0.63;;
23410;SDS011;11878;51.774;7.220;2022-08-07T08:37:13;4.30;;;0.87;;
23410;SDS011;11878;51.774;7.220;2022-08-07T08:40:37;1.75;;;0.55;;
23410;SDS011;11878;51.774;7.220;2022-08-07T08:44:00;1.43;;;0.80;;
23410;SDS011;11878;51.774;7.220;2022-08-07T08:47:49;2.37;;;0.60;;
23410;SDS011;11878;51.774;7.220;2022-08-07T08:51:38;1.13;;;0.50;;
23410;SDS011;11878;51.774;7.220;2022-08-07T08:55:00;0.82;;;0.60;;
23410;SDS011;11878;51.774;7.220;2022-08-07T09:05:40;0.50;;;0.40;;
23410;SDS011;11878;51.774;7.220;2022-08-07T09:09:16;0.93;;;0.40;;
23410;SDS011;11878;51.774;7.220;2022-08-07T09:12:42;2.00;;;0.50;;
23410;SDS011;11878;51.774;7.220;2022-08-07T09:27:15;1.17;;;0.40;;
23410;SDS011;11878;51.774;7.220;2022-08-07T09:30:57;0.73;;;0.45;;
23410;SDS011;11878;51.774;7.220;2022-08-07T09:45:14;2.92;;;0.43;;
23410;SDS011;11878;51.774;7.220;2022-08-07T09:52:47;0.65;;;0.30;;
23410;SDS011;11878;51.774;7.220;2022-08-07T09:55:59;1.23;;;0.50;;
23410;SDS011;11878;51.774;7.220;2022-08-07T09:59:40;3.00;;;0.50;;
23410;SDS011;11878;51.774;7.220;2022-08-07T10:07:00;0.60;;;0.38;;
23410;SDS011;11878;51.774;7.220;2022-08-07T10:10:33;2.65;;;0.38;;
23410;SDS011;11878;51.774;7.220;2022-08-07T10:14:07;0.68;;;0.40;;
23410;SDS011;11878;51.774;7.220;2022-08-07T10:39:46;1.23;;;0.45;;
23410;SDS011;11878;51.774;7.220;2022-08-07T10:46:23;0.25;;;0.25;;
23410;SDS011;11878;51.774;7.220;2022-08-07T10:49:34;0.30;;;0.20;;
23410;SDS011;11878;51.774;7.220;2022-08-07T10:52:59;1.10;;;0.30;;
23410;SDS011;11878;51.774;7.220;2022-08-07T10:59:26;0.95;;;0.20;;
23410;SDS011;11878;51.774;7.220;2022-08-07T11:03:08;0.90;;;0.30;;
23410;SDS011;11878;51.774;7.220;2022-08-07T11:06:20;2.53;;;0.32;;
23410;SDS011;11878;51.774;7.220;2022-08-07T11:09:30;0.20;;;0.20;;
23410;SDS011;11878;51.774;7.220;2022-08-07T11:13:03;1.27;;;0.40;;
23410;SDS011;11878;51.774;7.220;2022-08-07T11:16:51;0.30;;;0.20;;
23410;SDS011;11878;51.774;7.220;2022-08-07T11:20:06;0.85;;;0.30;;
23410;SDS011;11878;51.774;7.220;2022-08-07T11:26:53;3.22;;;0.30;;
23410;SDS011;11878;51.774;7.220;2022-08-07T11:30:03;0.98;;;0.17;;
23410;SDS011;11878;51.774;7.220;2022-08-07T11:33:23;2.10;;;0.30;;
23410;SDS011;11878;51.774;7.220;2022-08-07T11:37:14;1.00;;;0.40;;
23410;SDS011;11878;51.774;7.220;2022-08-07T11:40:57;1.63;;;0.30;;
23410;SDS011;11878;51.774;7.220;2022-08-07T11:44:09;0.20;;;0.20;;
23410;SDS011;11878;51.774;7.220;2022-08-07T11:51:11;0.22;;;0.20;;
23410;SDS011;11878;51.774;7.220;2022-08-07T11:54:54;0.85;;;0.40;;
23410;SDS011;11878;51.774;7.220;2022-08-07T12:02:46;1.58;;;0.30;;
23410;SDS011;11878;51.774;7.220;2022-08-07T12:09:47;1.27;;;0.40;;
23410;SDS011;11878;51.774;7.220;2022-08-07T12:13:02;0.22;;;0.20;;
23410;SDS011;11878;51.774;7.220;2022-08-07T12:16:19;0.70;;;0.30;;
23410;SDS011;11878;51.774;7.220;2022-08-07T12:23:10;0.70;;;0.30;;
23410;SDS011;11878;51.774;7.220;2022-08-07T12:27:13;0.82;;;0.40;;
23410;SDS011;11878;51.774;7.220;2022-08-07T12:30:30;0.80;;;0.30;;
23410;SDS011;11878;51.774;7.220;2022-08-07T12:33:36;0.75;;;0.43;;
23410;SDS011;11878;51.774;7.220;2022-08-07T12:37:00;1.40;;;0.50;;
23410;SDS011;11878;51.774;7.220;2022-08-07T12:40:22;3.63;;;0.30;;
23410;SDS011;11878;51.774;7.220;2022-08-07T12:43:46;1.40;;;0.50;;
23410;SDS011;11878;51.774;7.220;2022-08-07T12:54:20;0.30;;;0.30;;
23410;SDS011;11878;51.774;7.220;2022-08-07T12:57:41;0.35;;;0.25;;
23410;SDS011;11878;51.774;7.220;2022-08-07T13:04:32;0.82;;;0.35;;
23410;SDS011;11878;51.774;7.220;2022-08-07T13:23:11;0.70;;;0.32;;
23410;SDS011;11878;51.774;7.220;2022-08-07T13:30:06;1.50;;;0.40;;
23410;SDS011;11878;51.774;7.220;2022-08-07T13:43:44;0.68;;;0.40;;
23410;SDS011;11878;51.774;7.220;2022-08-07T13:46:57;1.05;;;0.47;;
23410;SDS011;11878;51.774;7.220;2022-08-07T13:50:00;1.85;;;0.43;;
23410;SDS011;11878;51.774;7.220;2022-08-07T13:53:25;0.77;;;0.30;;
23410;SDS011;11878;51.774;7.220;2022-08-07T13:56:56;0.30;;;0.20;;
23410;SDS011;11878;51.774;7.220;2022-08-07T14:00:00;0.77;;;0.30;;
23410;SDS011;11878;51.774;7.220;2022-08-07T14:03:12;0.57;;;0.50;;
23410;SDS011;11878;51.774;7.220;2022-08-07T14:06:30;0.60;;;0.40;;
23410;SDS011;11878;51.774;7.220;2022-08-07T14:09:34;0.38;;;0.22;;
23410;SDS011;11878;51.774;7.220;2022-08-07T14:13:00;1.17;;;0.30;;
23410;SDS011;11878;51.774;7.220;2022-08-07T14:16:04;1.15;;;0.40;;
23410;SDS011;11878;51.774;7.220;2022-08-07T14:19:17;0.38;;;0.20;;
23410;SDS011;11878;51.774;7.220;2022-08-07T14:22:50;0.45;;;0.20;;
23410;SDS011;11878;51.774;7.220;2022-08-07T14:26:04;1.55;;;0.50;;
23410;SDS011;11878;51.774;7.220;2022-08-07T14:29:40;0.30;;;0.30;;
23410;SDS011;11878;51.774;7.220;2022-08-07T14:33:09;2.25;;;0.45;;
23410;SDS011;11878;51.774;7.220;2022-08-07T14:36:15;1.80;;;0.50;;
23410;SDS011;11878;51.774;7.220;2022-08-07T14:39:17;2.00;;;0.40;;
23410;SDS011;11878;51.774;7.220;2022-08-07T14:42:41;0.75;;;0.30;;
23410;SDS011;11878;51.774;7.220;2022-08-07T14:46:01;0.65;;;0.40;;
23410;SDS011;11878;51.774;7.220;2022-08-07T14:49:04;0.80;;;0.40;;
23410;SDS011;11878;51.774;7.220;2022-08-07T14:52:18;2.00;;;0.43;;
23410;SDS011;11878;51.774;7.220;2022-08-07T14:55:31;0.60;;;0.30;;
23410;SDS011;11878;51.774;7.220;2022-08-07T14:58:55;0.95;;;0.50;;
23410;SDS011;11878;51.774;7.220;2022-08-07T15:02:14;0.57;;;0.40;;
23410;SDS011;11878;51.774;7.220;2022-08-07T15:05:41;1.85;;;0.50;;
23410;SDS011;11878;51.774;7.220;2022-08-07T15:09:06;0.47;;;0.28;;
23410;SDS011;11878;51.774;7.220;2022-08-07T15:12:31;1.50;;;0.60;;
23410;SDS011;11878;51.774;7.220;2022-08-07T15:15:43;1.60;;;0.65;;
23410;SDS011;11878;51.774;7.220;2022-08-07T15:19:10;0.63;;;0.30;;
23410;SDS011;11878;51.774;7.220;2022-08-07T15:22:17;2.95;;;0.50;;
23410;SDS011;11878;51.774;7.220;2022-08-07T15:25:39;1.33;;;0.32;;
23410;SDS011;11878;51.774;7.220;2022-08-07T15:28:51;1.75;;;0.55;;
23410;SDS011;11878;51.774;7.220;2022-08-07T15:32:16;1.13;;;0.43;;
23410;SDS011;11878;51.774;7.220;2022-08-07T15:35:39;2.00;;;0.50;;
23410;SDS011;11878;51.774;7.220;2022-08-07T15:39:06;1.05;;;0.35;;
23410;SDS011;11878;51.774;7.220;2022-08-07T15:45:48;1.05;;;0.50;;
23410;SDS011;11878;51.774;7.220;2022-08-07T15:48:59;1.23;;;0.45;;
23410;SDS011;11878;51.774;7.220;2022-08-07T15:52:18;1.48;;;0.50;;
23410;SDS011;11878;51.774;7.220;2022-08-07T15:55:32;7.97;;;0.68;;
23410;SDS011;11878;51.774;7.220;2022-08-07T15:58:55;0.68;;;0.32;;
23410;SDS011;11878;51.774;7.220;2022-08-07T16:01:59;0.80;;;0.50;;
23410;SDS011;11878;51.774;7.220;2022-08-07T16:05:08;0.60;;;0.40;;
23410;SDS011;11878;51.774;7.220;2022-08-07T16:08:20;1.77;;;0.60;;
23410;SDS011;11878;51.774;7.220;2022-08-07T16:22:31;1.38;;;0.70;;
23410;SDS011;11878;51.774;7.220;2022-08-07T16:29:38;3.35;;;0.50;;
23410;SDS011;11878;51.774;7.220;2022-08-07T16:33:28;1.45;;;0.50;;
23410;SDS011;11878;51.774;7.220;2022-08-07T16:47:46;1.77;;;0.50;;
23410;SDS011;11878;51.774;7.220;2022-08-07T16:55:14;1.33;;;0.57;;
23410;SDS011;11878;51.774;7.220;2022-08-07T16:58:54;0.90;;;0.50;;
23410;SDS011;11878;51.774;7.220;2022-08-07T17:05:59;1.60;;;0.80;;
23410;SDS011;11878;51.774;7.220;2022-08-07T17:09:29;1.38;;;0.70;;
23410;SDS011;11878;51.774;7.220;2022-08-07T17:19:57;0.93;;;0.50;;
23410;SDS011;11878;51.774;7.220;2022-08-07T17:30:06;1.33;;;0.70;;
23410;SDS011;11878;51.774;7.220;2022-08-07T17:33:32;1.45;;;0.70;;
23410;SDS011;11878;51.774;7.220;2022-08-07T17:36:58;1.40;;;0.68;;
23410;SDS011;11878;51.774;7.220;2022-08-07T17:40:44;1.02;;;0.60;;
23410;SDS011;11878;51.774;7.220;2022-08-07T17:44:26;1.83;;;0.80;;
23410;SDS011;11878;51.774;7.220;2022-08-07T17:47:49;2.78;;;0.60;;
23410;SDS011;11878;51.774;7.220;2022-08-07T17:54:27;2.22;;;0.80;;
23410;SDS011;11878;51.774;7.220;2022-08-07T17:57:59;2.95;;;1.00;;
23410;SDS011;11878;51.774;7.220;2022-08-07T18:01:09;1.50;;;0.77;;
23410;SDS011;11878;51.774;7.220;2022-08-07T18:04:25;2.40;;;0.82;;
23410;SDS011;11878;51.774;7.220;2022-08-07T18:10:37;1.98;;;0.88;;
23410;SDS011;11878;51.774;7.220;2022-08-07T18:14:13;1.00;;;0.65;;
23410;SDS011;11878;51.774;7.220;2022-08-07T18:17:30;1.77;;;0.93;;
23410;SDS011;11878;51.774;7.220;2022-08-07T18:21:31;3.38;;;0.80;;
23410;SDS011;11878;51.774;7.220;2022-08-07T18:24:46;1.00;;;0.60;;
23410;SDS011;11878;51.774;7.220;2022-08-07T18:31:41;1.70;;;0.80;;
23410;SDS011;11878;51.774;7.220;2022-08-07T18:38:20;1.25;;;0.65;;
23410;SDS011;11878;51.774;7.220;2022-08-07T18:41:53;1.98;;;0.90;;
23410;SDS011;11878;51.774;7.220;2022-08-07T18:45:13;4.65;;;1.27;;
23410;SDS011;11878;51.774;7.220;2022-08-07T18:48:46;2.80;;;1.48;;
23410;SDS011;11878;51.774;7.220;2022-08-07T18:56:49;2.08;;;0.95;;
23410;SDS011;11878;51.774;7.220;2022-08-07T18:59:40;4.20;;;1.65;;
23410;SDS011;11878;51.774;7.220;2022-08-07T19:03:17;5.03;;;1.58;;
23410;SDS011;11878;51.774;7.220;2022-08-07T19:10:17;1.60;;;0.88;;
23410;SDS011;11878;51.774;7.220;2022-08-07T19:13:46;2.17;;;1.13;;
23410;SDS011;11878;51.774;7.220;2022-08-07T19:16:59;1.40;;;0.75;;
23410;SDS011;11878;51.774;7.220;2022-08-07T19:20:17;1.75;;;0.80;;
23410;SDS011;11878;51.774;7.220;2022-08-07T19:23:38;3.50;;;0.90;;
23410;SDS011;11878;51.774;7.220;2022-08-07T19:27:01;2.67;;;0.95;;
23410;SDS011;11878;51.774;7.220;2022-08-07T19:30:30;3.08;;;1.70;;
23410;SDS011;11878;51.774;7.220;2022-08-07T19:33:54;3.50;;;2.28;;
23410;SDS011;11878;51.774;7.220;2022-08-07T19:37:01;1.27;;;0.75;;
23410;SDS011;11878;51.774;7.220;2022-08-07T19:40:18;2.28;;;1.17;;
23410;SDS011;11878;51.774;7.220;2022-08-07T19:43:33;5.22;;;1.00;;
23410;SDS011;11878;51.774;7.220;2022-08-07T19:46:54;1.85;;;0.90;;
23410;SDS011;11878;51.774;7.220;2022-08-07T19:50:14;2.67;;;1.08;;
23410;SDS011;11878;51.774;7.220;2022-08-07T19:53:37;5.53;;;1.13;;
23410;SDS011;11878;51.774;7.220;2022-08-07T19:57:00;1.67;;;0.73;;
23410;SDS011;11878;51.774;7.220;2022-08-07T20:00:26;2.65;;;0.90;;
23410;SDS011;11878;51.774;7.220;2022-08-07T20:03:30;3.72;;;1.00;;
23410;SDS011;11878;51.774;7.220;2022-08-07T20:06:36;2.25;;;0.95;;
23410;SDS011;11878;51.774;7.220;2022-08-07T20:09:43;5.13;;;1.35;;
23410;SDS011;11878;51.774;7.220;2022-08-07T20:13:11;3.08;;;1.17;;
23410;SDS011;11878;51.774;7.220;2022-08-07T20:16:27;4.55;;;1.35;;
23410;SDS011;11878;51.774;7.220;2022-08-07T20:19:36;3.00;;;0.90;;
23410;SDS011;11878;51.774;7.220;2022-08-07T20:22:53;3.08;;;1.10;;
23410;SDS011;11878;51.774;7.220;2022-08-07T20:26:05;2.47;;;1.08;;
23410;SDS011;11878;51.774;7.220;2022-08-07T20:29:10;1.42;;;0.90;;
23410;SDS011;11878;51.774;7.220;2022-08-07T20:32:36;1.02;;;0.93;;
23410;SDS011;11878;51.774;7.220;2022-08-07T20:35:46;6.57;;;1.10;;
23410;SDS011;11878;51.774;7.220;2022-08-07T20:39:03;1.45;;;0.90;;
23410;SDS011;11878;51.774;7.220;2022-08-07T20:42:26;2.08;;;0.82;;
23410;SDS011;11878;51.774;7.220;2022-08-07T20:45:31;2.95;;;0.95;;
23410;SDS011;11878;51.774;7.220;2022-08-07T20:48:55;2.05;;;1.10;;
23410;SDS011;11878;51.774;7.220;2022-08-07T20:52:21;3.33;;;1.00;;
23410;SDS011;11878;51.774;7.220;2022-08-07T20:55:48;1.45;;;1.02;;
23410;SDS011;11878;51.774;7.220;2022-08-07T20:59:03;2.55;;;1.10;;
23410;SDS011;11878;51.774;7.220;2022-08-07T21:02:10;2.17;;;1.10;;
23410;SDS011;11878;51.774;7.220;2022-08-07T21:05:39;1.30;;;1.00;;
23410;SDS011;11878;51.774;7.220;2022-08-07T21:08:58;1.98;;;1.20;;
23410;SDS011;11878;51.774;7.220;2022-08-07T21:12:15;2.25;;;1.10;;
23410;SDS011;11878;51.774;7.220;2022-08-07T21:15:32;1.02;;;0.88;;
23410;SDS011;11878;51.774;7.220;2022-08-07T21:18:48;2.88;;;1.48;;
23410;SDS011;11878;51.774;7.220;2022-08-07T21:21:53;2.50;;;1.38;;
23410;SDS011;11878;51.774;7.220;2022-08-07T21:25:02;4.10;;;1.55;;
23410;SDS011;11878;51.774;7.220;2022-08-07T21:28:14;3.65;;;1.48;;
23410;SDS011;11878;51.774;7.220;2022-08-07T21:31:42;3.20;;;1.40;;
23410;SDS011;11878;51.774;7.220;2022-08-07T21:35:24;2.22;;;1.50;;
23410;SDS011;11878;51.774;7.220;2022-08-07T21:43:06;4.77;;;1.50;;
23410;SDS011;11878;51.774;7.220;2022-08-07T21:46:15;2.53;;;1.30;;
23410;SDS011;11878;51.774;7.220;2022-08-07T21:49:52;2.70;;;1.37;;
23410;SDS011;11878;51.774;7.220;2022-08-07T21:53:14;2.00;;;1.10;;
23410;SDS011;11878;51.774;7.220;2022-08-07T21:56:27;3.33;;;1.40;;
23410;SDS011;11878;51.774;7.220;2022-08-07T22:03:33;1.90;;;1.30;;
23410;SDS011;11878;51.774;7.220;2022-08-07T22:06:51;2.13;;;1.20;;
23410;SDS011;11878;51.774;7.220;2022-08-07T22:10:00;3.33;;;1.43;;
23410;SDS011;11878;51.774;7.220;2022-08-07T22:13:04;1.90;;;1.10;;
23410;SDS011;11878;51.774;7.220;2022-08-07T22:16:14;2.97;;;1.30;;
23410;SDS011;11878;51.774;7.220;2022-08-07T22:19:42;3.53;;;1.40;;
23410;SDS011;11878;51.774;7.220;2022-08-07T22:26:49;2.53;;;1.43;;
23410;SDS011;11878;51.774;7.220;2022-08-07T22:30:18;2.30;;;1.47;;
23410;SDS011;11878;51.774;7.220;2022-08-07T22:33:23;4.80;;;1.50;;
23410;SDS011;11878;51.774;7.220;2022-08-07T22:37:05;2.73;;;1.27;;
23410;SDS011;11878;51.774;7.220;2022-08-07T22:40:25;3.30;;;1.47;;
23410;SDS011;11878;51.774;7.220;2022-08-07T22:43:43;4.33;;;1.30;;
23410;SDS011;11878;51.774;7.220;2022-08-07T22:47:17;10.70;;;1.70;;
23410;SDS011;11878;51.774;7.220;2022-08-07T22:50:28;2.70;;;1.57;;
23410;SDS011;11878;51.774;7.220;2022-08-07T23:04:02;3.60;;;1.60;;
23410;SDS011;11878;51.774;7.220;2022-08-07T23:11:10;2.27;;;1.23;;
23410;SDS011;11878;51.774;7.220;2022-08-07T23:14:35;7.67;;;1.30;;
23410;SDS011;11878;51.774;7.220;2022-08-07T23:18:23;2.47;;;1.50;;
23410;SDS011;11878;51.774;7.220;2022-08-07T23:21:47;2.03;;;1.30;;
23410;SDS011;11878;51.774;7.220;2022-08-07T23:35:37;3.17;;;1.73;;
23410;SDS011;11878;51.774;7.220;2022-08-07T23:39:00;2.27;;;1.27;;
23410;SDS011;11878;51.774;7.220;2022-08-07T23:42:24;3.30;;;1.60;;
23410;SDS011;11878;51.774;7.220;2022-08-07T23:45:37;2.27;;;1.40;;
